Aérodrome :
LOGIN :

S'inscrire | Disclaimer

   EN    FR    IT 

 










Légende :    VFR   VFR Marginal   IFR   IFR Intensif   IFR Très Intensif
Visi : 
Plafond : 
>= 8 km
>= 3000ft
5 à 8 km
1000 à 3000 ft
1500m à 5 km
500 à 1000 ft
800 à 1500m
200 à 500 ft
< 800m
< 200 ft
Symboles :   Orages  Brouillard  Fortes neiges  Fortes précipitations  Vent > 20 kt
SIGMETs :   Divers  Orages  Givrage  Turbulence  Onde Orograph.  Cendres Volcan.







- Altitude de l'aérodrome : 1367 ft
- Code IATA : FDH


EDNY - Friedrichshafen

DERNIER METAR :
  • 191050Z VRB02KT CAVOK 17/08 Q1016

METARs EXPIRÉS :
  • 191020Z VRB01KT CAVOK 16/09 Q1016
  • 190950Z 00000KT CAVOK 14/09 Q1016
  • 190920Z VRB01KT 9999 FEW014 SCT088 13/10 Q1016
  • 190850Z VRB01KT CAVOK 11/09 Q1016
  • 190820Z VRB02KT CAVOK 10/09 Q1016

TAF TAF EDNY
Valide du 19 à 06h jusqu'au 20 à 06h UTC


190500Z 1906/2006 VRB03KT 4000 BR NSC
PROB30
TEMPO 1906/1907 0400 FG VV001
BECMG 1907/1910 9999
BECMG 1921/1924 3000 BR
TEMPO 2002/2006 1200 BCFG BKN004
Pas de NOTAMs connus pour ce terrain.



MET'MAP, la Météo Aéronautique d'un coup d'oeil ! - Copyright ORBIFLY Décembre 2007 - Disclaimer

ORBIFLY MET'MAP TEAM :

Programmation & Développement : Alexandra Zaïnal
Conception & Développement : Baudouin d'Aumeries
Co-Programmation & Développement : Marc-Olivier Méhu
Soutien technique & logistique : Manuel Goepfert

Contact : metmap@orbifly.com




SOURCES & CREDITS :

   NOAA